Time;durP1;ratioP1;P1;durP2;ratioP2;P2;SDS_P1;SDS_P2;PMS_P1;PMS_P2;Temp;Humidity;BMP_temperature;BMP_pressure;BME280_temperature;BME280_humidity;BME280_pressure;Samples;Min_cycle;Max_cycle;Signal;HPM_P1;HPM_P2
2022/03/25 00:02:58;;;;;;;37.30;20.25;;;;;;;7.53;52.68;101665.81;8718548;33;20183;-74
2022/03/25 00:08:01;;;;;;;36.80;20.60;;;;;;;7.38;52.64;101672.75;8724547;33;20132;-74
2022/03/25 00:13:06;;;;;;;38.80;20.10;;;;;;;7.30;52.97;101666.91;8730686;33;20991;-74
2022/03/25 00:18:11;;;;;;;40.65;20.75;;;;;;;7.15;53.19;101663.13;8721468;33;20648;-73
2022/03/25 00:23:14;;;;;;;42.35;20.58;;;;;;;6.93;53.78;101666.78;8717723;33;20164;-73
2022/03/25 00:28:17;;;;;;;36.85;19.35;;;;;;;6.83;54.48;101665.47;8717564;33;20180;-73
2022/03/25 00:33:22;;;;;;;44.58;20.02;;;;;;;6.73;54.52;101664.13;8717370;33;20198;-73
2022/03/25 00:38:25;;;;;;;41.00;20.67;;;;;;;6.62;55.08;101672.59;8716784;33;20299;-73
2022/03/25 00:43:28;;;;;;;41.15;22.48;;;;;;;6.55;55.40;101663.13;8715144;33;20206;-74
2022/03/25 00:48:33;;;;;;;41.22;20.60;;;;;;;6.50;55.32;101660.69;8738856;33;20215;-73
2022/03/25 00:53:36;;;;;;;35.25;19.27;;;;;;;6.37;55.84;101656.81;8738793;33;20195;-73
2022/03/25 00:58:39;;;;;;;40.30;20.02;;;;;;;6.14;56.34;101657.75;8716208;33;20195;-73
2022/03/25 01:03:44;;;;;;;41.00;20.33;;;;;;;6.00;56.89;101660.16;8715283;33;20148;-73
2022/03/25 01:08:47;;;;;;;37.88;20.98;;;;;;;5.98;57.01;101659.34;8715419;33;20293;-74
2022/03/25 01:13:51;;;;;;;35.38;18.85;;;;;;;5.91;57.21;101656.94;8716194;33;20839;-73
2022/03/25 01:18:55;;;;;;;38.20;19.02;;;;;;;5.77;57.29;101667.31;8714328;33;20764;-73
2022/03/25 01:23:59;;;;;;;40.80;20.48;;;;;;;5.61;58.06;101663.50;8722285;33;20426;-73
2022/03/25 01:29:04;;;;;;;40.00;20.02;;;;;;;5.67;58.08;101669.44;8717064;33;20536;-73
2022/03/25 01:34:09;;;;;;;36.72;20.30;;;;;;;5.68;58.04;101667.69;8737870;33;20187;-73
2022/03/25 01:39:12;;;;;;;38.10;18.80;;;;;;;5.73;58.24;101663.00;8737829;33;20425;-74
2022/03/25 01:44:16;;;;;;;38.83;18.55;;;;;;;5.69;58.23;101662.28;8714994;33;20176;-73
2022/03/25 01:49:22;;;;;;;35.15;19.63;;;;;;;5.55;58.46;101651.31;8736460;33;20280;-73
2022/03/25 01:54:27;;;;;;;41.55;21.20;;;;;;;5.55;58.44;101659.28;8713705;33;20668;-74
2022/03/25 01:59:32;;;;;;;39.38;19.67;;;;;;;5.46;58.96;101657.00;8714136;33;20856;-73
2022/03/25 02:04:36;;;;;;;40.75;19.60;;;;;;;5.58;58.89;101659.16;8714797;33;20183;-73
2022/03/25 02:09:40;;;;;;;40.17;20.48;;;;;;;5.42;58.67;101672.22;8714129;33;20147;-73
2022/03/25 02:14:46;;;;;;;36.88;19.42;;;;;;;5.38;59.06;101677.75;8714858;33;20145;-73
2022/03/25 02:19:51;;;;;;;35.22;18.88;;;;;;;5.35;58.92;101662.75;8737935;33;20979;-74
2022/03/25 02:24:56;;;;;;;39.67;20.30;;;;;;;5.11;59.72;101663.69;8737194;33;20132;-73
2022/03/25 02:29:59;;;;;;;38.47;18.88;;;;;;;5.19;59.89;101662.47;8705965;33;20444;-74
2022/03/25 02:35:04;;;;;;;39.80;20.42;;;;;;;4.99;60.42;101671.22;8714792;33;21675;-73
2022/03/25 02:40:10;;;;;;;41.08;19.65;;;;;;;4.72;61.09;101670.41;8713952;33;20290;-73
2022/03/25 02:45:20;;;;;;;36.28;20.92;;;;;;;4.57;61.40;101669.13;8738474;33;20218;-74
2022/03/25 02:50:25;;;;;;;38.13;20.00;;;;;;;4.11;62.83;101675.19;8717501;33;20198;-73
2022/03/25 02:55:29;;;;;;;37.28;21.00;;;;;;;4.13;63.03;101670.69;8719964;33;20180;-73
2022/03/25 03:00:32;;;;;;;36.78;20.20;;;;;;;3.98;63.87;101682.72;8718852;33;20192;-74
2022/03/25 03:05:36;;;;;;;35.65;19.50;;;;;;;3.67;65.48;101678.38;8718855;33;20274;-74
2022/03/25 03:10:40;;;;;;;38.58;19.35;;;;;;;3.72;65.02;101683.53;8718682;33;20187;-74
2022/03/25 03:15:43;;;;;;;38.90;21.20;;;;;;;3.83;65.17;101684.06;8718578;33;20183;-73
2022/03/25 03:20:47;;;;;;;39.55;19.90;;;;;;;4.05;64.40;101678.06;8717980;33;20187;-73
2022/03/25 03:25:51;;;;;;;43.65;20.80;;;;;;;4.23;63.62;101682.75;8718025;33;20417;-74
2022/03/25 03:30:55;;;;;;;41.00;20.58;;;;;;;4.43;63.05;101674.09;8718556;33;20180;-74
2022/03/25 03:35:58;;;;;;;39.13;20.52;;;;;;;4.43;62.63;101676.75;8719204;33;20156;-73
2022/03/25 03:41:03;;;;;;;43.50;21.00;;;;;;;4.37;62.52;101684.94;8718337;33;20836;-74
2022/03/25 03:46:06;;;;;;;44.47;21.77;;;;;;;4.23;62.71;101681.91;8740120;33;20183;-74
2022/03/25 03:51:09;;;;;;;47.83;20.88;;;;;;;4.17;63.01;101683.84;8719282;33;20192;-74
2022/03/25 03:56:13;;;;;;;39.45;20.40;;;;;;;4.23;62.77;101671.25;8720306;33;20183;-73
2022/03/25 04:01:17;;;;;;;39.60;20.23;;;;;;;4.23;62.59;101679.25;8742504;33;20637;-73
2022/03/25 04:06:22;;;;;;;42.60;20.48;;;;;;;4.27;62.96;101678.19;8719605;33;20148;-73
2022/03/25 04:11:26;;;;;;;41.88;19.75;;;;;;;4.22;62.87;101685.47;8718349;33;20199;-73
2022/03/25 04:16:29;;;;;;;39.03;20.50;;;;;;;4.23;62.62;101687.22;8716674;33;20136;-73
2022/03/25 04:21:33;;;;;;;37.30;19.05;;;;;;;4.21;63.00;101678.41;8717375;33;20205;-74
2022/03/25 04:26:37;;;;;;;37.97;20.63;;;;;;;4.18;63.24;101690.88;8716555;33;20187;-74
2022/03/25 04:31:40;;;;;;;34.13;18.58;;;;;;;4.12;63.17;101690.22;8716707;33;20214;-74
2022/03/25 04:36:43;;;;;;;39.50;19.73;;;;;;;4.06;63.54;101695.72;8731493;33;20246;-74
2022/03/25 04:41:48;;;;;;;35.35;19.02;;;;;;;3.98;63.35;101693.34;8716967;33;20183;-73
2022/03/25 04:46:53;;;;;;;35.38;19.45;;;;;;;4.02;63.21;101694.97;8716708;33;20237;-74
2022/03/25 04:51:56;;;;;;;40.45;20.23;;;;;;;3.90;63.36;101706.88;8717241;33;20183;-73
2022/03/25 04:57:00;;;;;;;35.88;19.77;;;;;;;3.69;63.59;101696.94;8716167;33;20172;-73
2022/03/25 05:02:03;;;;;;;37.22;19.67;;;;;;;3.57;64.44;101705.31;8716487;33;20521;-73
2022/03/25 05:07:07;;;;;;;41.15;20.52;;;;;;;3.62;64.31;101698.94;8717244;33;20804;-74
2022/03/25 05:12:13;;;;;;;46.90;19.95;;;;;;;3.69;64.20;101702.25;8724129;33;20258;-72
2022/03/25 05:17:27;;;;;;;43.40;20.20;;;;;;;3.59;64.25;101711.41;8717694;33;20147;-74
2022/03/25 05:22:30;;;;;;;46.55;19.58;;;;;;;3.73;64.01;101709.22;8716651;33;20140;-73
2022/03/25 05:27:48;;;;;;;42.38;19.30;;;;;;;3.91;63.39;101707.75;8715379;33;21748;-73
2022/03/25 05:32:52;;;;;;;43.30;20.88;;;;;;;3.91;62.92;101721.91;8718160;33;20193;-72
2022/03/25 05:37:56;;;;;;;41.23;19.50;;;;;;;3.77;63.16;101721.47;8717630;33;20191;-72
2022/03/25 05:43:01;;;;;;;42.60;20.05;;;;;;;3.73;63.60;101723.38;8717829;33;20128;-73
2022/03/25 05:48:05;;;;;;;43.13;19.80;;;;;;;3.80;63.56;101724.03;8717685;33;20267;-73
2022/03/25 05:53:09;;;;;;;39.58;18.90;;;;;;;3.77;63.57;101721.47;8716833;33;20151;-72
2022/03/25 05:58:15;;;;;;;39.15;19.08;;;;;;;3.64;63.82;101730.75;8716251;33;20440;-73
2022/03/25 06:03:18;;;;;;;47.40;21.50;;;;;;;3.80;63.75;101734.66;8716835;33;20991;-72
2022/03/25 06:08:40;;;;;;;39.60;19.33;;;;;;;3.75;63.92;101743.72;8712098;33;20142;-72
2022/03/25 06:13:45;;;;;;;37.53;19.90;;;;;;;3.83;63.68;101749.66;8715034;33;20144;-73
2022/03/25 06:18:48;;;;;;;37.30;18.73;;;;;;;3.94;63.88;101742.22;8716935;33;20321;-74
2022/03/25 06:23:51;;;;;;;38.72;20.15;;;;;;;4.12;63.27;101744.28;8731321;33;20217;-73
2022/03/25 06:28:56;;;;;;;38.38;18.88;;;;;;;4.38;62.93;101756.72;8732880;33;20183;-73
2022/03/25 06:33:59;;;;;;;35.67;18.08;;;;;;;4.56;62.34;101749.06;8728402;33;20188;-74
2022/03/25 06:39:02;;;;;;;40.97;19.58;;;;;;;4.80;61.77;101758.84;8722723;33;20228;-74
2022/03/25 06:44:07;;;;;;;45.63;20.77;;;;;;;5.16;61.36;101762.97;8720688;33;20196;-74
2022/03/25 06:49:11;;;;;;;42.45;19.80;;;;;;;5.48;60.39;101765.28;8720746;33;20514;-73
2022/03/25 06:54:14;;;;;;;45.25;21.00;;;;;;;5.68;59.72;101769.00;8720751;33;20180;-74
2022/03/25 06:59:21;;;;;;;47.95;23.02;;;;;;;5.93;58.76;101768.91;8719589;33;20676;-74
2022/03/25 07:04:25;;;;;;;17.45;8.30;;;;;;;6.10;58.29;101779.75;8727394;32;20982;-73
2022/03/25 07:09:29;;;;;;;25.25;12.65;;;;;;;6.56;57.10;101779.69;8722519;32;20619;-73
2022/03/25 07:14:34;;;;;;;28.80;15.60;;;;;;;7.13;55.76;101779.91;8718428;32;20144;-74
2022/03/25 07:19:37;;;;;;;36.08;18.27;;;;;;;7.29;55.23;101775.63;8717518;33;20183;-74
2022/03/25 07:24:40;;;;;;;37.83;18.98;;;;;;;7.76;54.41;101780.56;8717503;32;20277;-74
2022/03/25 07:29:44;;;;;;;38.42;18.85;;;;;;;8.09;53.91;101785.25;8716560;32;20264;-74
2022/03/25 07:34:47;;;;;;;36.17;19.45;;;;;;;8.20;53.27;101787.41;8713194;32;20144;-74
2022/03/25 07:39:51;;;;;;;36.88;19.88;;;;;;;8.56;52.58;101796.34;8714469;33;20167;-74
2022/03/25 07:44:57;;;;;;;39.65;19.88;;;;;;;8.94;52.11;101804.25;8718856;33;20593;-74
2022/03/25 07:50:01;;;;;;;35.97;19.35;;;;;;;9.27;50.95;101809.66;8717341;32;20277;-72
2022/03/25 07:55:05;;;;;;;34.80;19.08;;;;;;;9.48;48.59;101818.34;8715256;33;20199;-72
2022/03/25 08:00:12;;;;;;;31.05;18.52;;;;;;;9.88;48.43;101829.66;8726529;33;20515;-72
2022/03/25 08:05:16;;;;;;;39.15;19.92;;;;;;;10.05;48.63;101830.53;8720319;33;20192;-72
2022/03/25 08:10:20;;;;;;;34.45;18.90;;;;;;;9.73;50.13;101828.63;8718813;32;20176;-74
2022/03/25 08:15:27;;;;;;;38.03;19.58;;;;;;;9.94;50.19;101833.81;8719320;32;20609;-73
2022/03/25 08:20:35;;;;;;;38.35;19.60;;;;;;;10.68;49.07;101826.94;8718535;32;20622;-73
2022/03/25 08:31:00;;;;;;;37.03;19.83;;;;;;;10.81;49.03;101847.63;8717078;32;20183;-73
2022/03/25 08:36:04;;;;;;;35.35;20.95;;;;;;;10.96;49.94;101853.03;8715726;32;20271;-73
2022/03/25 08:41:07;;;;;;;36.53;21.58;;;;;;;11.17;49.64;101849.09;8716352;33;20270;-73
2022/03/25 08:46:12;;;;;;;34.47;20.30;;;;;;;11.55;48.39;101847.72;8717243;33;20223;-72
2022/03/25 08:51:16;;;;;;;38.75;19.92;;;;;;;11.97;47.10;101852.22;8718861;33;20244;-73
2022/03/25 08:56:20;;;;;;;38.85;19.70;;;;;;;12.12;46.12;101856.66;8717068;33;20176;-72
2022/03/25 09:01:25;;;;;;;41.40;20.95;;;;;;;12.48;45.12;101849.84;8718434;33;20530;-72
2022/03/25 09:06:28;;;;;;;38.88;20.10;;;;;;;12.57;43.75;101846.53;8717498;33;20482;-73
2022/03/25 09:11:31;;;;;;;36.15;20.67;;;;;;;13.22;42.13;101855.69;8716202;33;20451;-73
2022/03/25 09:16:36;;;;;;;36.92;19.42;;;;;;;13.43;42.71;101856.03;8714259;32;20148;-74
2022/03/25 09:21:39;;;;;;;34.42;19.27;;;;;;;14.34;40.23;101853.06;8716793;33;20222;-73
2022/03/25 09:26:43;;;;;;;34.65;18.65;;;;;;;14.84;39.18;101848.47;8717190;33;20164;-73
2022/03/25 09:31:47;;;;;;;33.95;18.42;;;;;;;15.40;37.67;101851.38;8580528;33;22238;-73
2022/03/25 09:37:05;;;;;;;30.67;17.45;;;;;;;15.99;36.37;101849.41;8542471;33;20475;-73
2022/03/25 09:42:09;;;;;;;31.95;18.52;;;;;;;16.38;36.06;101853.47;8538258;33;20152;-72
2022/03/25 09:47:16;;;;;;;29.98;17.63;;;;;;;16.70;35.46;101850.81;8538017;33;20227;-73
2022/03/25 09:52:19;;;;;;;38.40;19.08;;;;;;;17.06;35.57;101854.09;8535370;32;20457;-72
2022/03/25 09:57:43;;;;;;;37.08;19.45;;;;;;;17.50;34.16;101851.25;8530898;32;20469;-73
2022/03/25 10:02:48;;;;;;;36.90;19.80;;;;;;;17.87;33.80;101848.88;8540312;33;20417;-73
2022/03/25 10:07:54;;;;;;;36.85;19.48;;;;;;;17.79;33.73;101851.41;8554988;33;20247;-73
2022/03/25 10:13:04;;;;;;;36.80;20.90;;;;;;;18.22;32.49;101843.00;8547509;33;20421;-72
2022/03/25 10:18:10;;;;;;;37.30;22.00;;;;;;;18.47;32.46;101846.22;8566570;33;20447;-73
2022/03/25 10:23:17;;;;;;;33.20;20.17;;;;;;;18.56;31.66;101843.50;8540591;33;20427;-72
2022/03/25 10:28:28;;;;;;;37.22;19.38;;;;;;;18.36;32.02;101845.31;8538824;33;20453;-73
2022/03/25 10:33:35;;;;;;;35.63;19.05;;;;;;;18.24;32.05;101841.03;8540845;33;20824;-73
2022/03/25 10:38:48;;;;;;;38.78;20.20;;;;;;;18.43;31.58;101833.88;8543321;33;20278;-72
2022/03/25 10:43:59;;;;;;;38.22;21.15;;;;;;;18.23;31.21;101842.00;8543761;33;20412;-72
2022/03/25 10:49:06;;;;;;;33.47;19.15;;;;;;;18.28;31.43;101841.59;8555151;33;20909;-73
2022/03/25 10:54:11;;;;;;;38.92;21.73;;;;;;;18.54;31.39;101839.19;8544770;33;21261;-73
2022/03/25 10:59:23;;;;;;;35.83;21.13;;;;;;;18.99;31.03;101836.81;8541883;33;20474;-73
2022/03/25 11:04:28;;;;;;;34.78;20.75;;;;;;;19.33;30.86;101830.00;8543294;33;20414;-73
2022/03/25 11:09:32;;;;;;;36.45;20.80;;;;;;;19.12;30.41;101831.06;8547467;33;20945;-73
2022/03/25 11:14:35;;;;;;;37.55;21.15;;;;;;;18.99;30.88;101831.34;8550917;33;20230;-73
2022/03/25 11:19:39;;;;;;;34.38;20.40;;;;;;;19.65;30.23;101835.97;8561059;33;20247;-72
2022/03/25 11:24:49;;;;;;;35.40;19.70;;;;;;;19.68;30.34;101826.63;8561356;32;20448;-73
2022/03/25 11:30:00;;;;;;;37.10;21.02;;;;;;;20.77;29.43;101830.31;8558448;32;20204;-73
2022/03/25 11:35:21;;;;;;;37.63;21.80;;;;;;;21.83;27.98;101821.19;8561817;33;20240;-73
2022/03/25 11:40:27;;;;;;;34.13;21.65;;;;;;;22.28;27.04;101815.38;8559990;32;21104;-73
2022/03/25 11:45:35;;;;;;;33.50;20.40;;;;;;;23.05;26.75;101817.88;8549887;33;20211;-73
2022/03/25 11:50:41;;;;;;;37.65;21.80;;;;;;;22.96;26.69;101807.94;8553687;33;20232;-73
2022/03/25 11:55:54;;;;;;;33.08;20.48;;;;;;;22.68;26.55;101818.38;8554831;33;21032;-74
2022/03/25 12:01:03;;;;;;;36.70;21.05;;;;;;;23.24;25.62;101807.63;8545007;33;20514;-72
2022/03/25 12:06:08;;;;;;;34.50;20.83;;;;;;;23.61;25.62;101804.25;8545634;33;20456;-73
2022/03/25 12:11:11;;;;;;;31.45;19.17;;;;;;;22.33;26.15;101813.00;8542808;33;20590;-73
2022/03/25 12:16:57;;;;;;;31.05;19.13;;;;;;;23.32;25.59;101788.41;8540142;33;20412;-74
2022/03/25 12:22:04;;;;;;;36.03;20.20;;;;;;;23.28;24.91;101796.09;8541323;33;21192;-73
2022/03/25 12:27:09;;;;;;;34.03;20.30;;;;;;;23.04;25.25;101788.75;8539948;33;20436;-73
2022/03/25 12:32:14;;;;;;;33.60;20.35;;;;;;;23.55;24.84;101783.03;8540665;33;20904;-73
2022/03/25 12:37:28;;;;;;;33.60;21.92;;;;;;;24.40;24.98;101772.16;8552062;33;20423;-73
2022/03/25 12:42:31;;;;;;;32.85;21.23;;;;;;;24.38;24.70;101787.09;8552579;33;22063;-73
2022/03/25 12:47:36;;;;;;;35.90;22.20;;;;;;;24.00;25.18;101779.59;8545708;33;20424;-73
2022/03/25 12:52:41;;;;;;;32.60;21.27;;;;;;;23.71;25.21;101773.88;8540042;33;20424;-73
2022/03/25 12:57:46;;;;;;;37.00;22.35;;;;;;;23.69;25.63;101767.72;8537068;33;20411;-73
2022/03/25 13:02:53;;;;;;;31.90;20.55;;;;;;;23.91;25.77;101766.09;8540653;33;20610;-73
2022/03/25 13:07:58;;;;;;;38.80;22.92;;;;;;;23.25;25.79;101757.22;8537470;33;20449;-73
2022/03/25 13:13:04;;;;;;;33.75;21.33;;;;;;;23.79;25.58;101760.16;8537934;33;20202;-73
2022/03/25 13:18:09;;;;;;;36.95;20.65;;;;;;;24.84;24.95;101748.63;8535961;33;20206;-73
2022/03/25 13:23:17;;;;;;;36.43;21.27;;;;;;;25.84;23.19;101757.38;8531127;33;20448;-73
2022/03/25 13:28:26;;;;;;;34.80;19.42;;;;;;;26.89;21.99;101755.09;8529998;33;20190;-73
2022/03/25 13:33:47;;;;;;;30.05;20.02;;;;;;;26.83;21.78;101753.16;8532043;33;20180;-73
2022/03/25 13:38:52;;;;;;;33.60;20.25;;;;;;;26.77;22.10;101751.13;8538864;33;20621;-73
2022/03/25 13:44:05;;;;;;;31.95;19.45;;;;;;;26.83;21.50;101748.47;8539854;33;20434;-73
2022/03/25 13:49:11;;;;;;;33.08;19.90;;;;;;;27.24;21.65;101744.13;8543211;33;20249;-73
2022/03/25 13:54:18;;;;;;;32.08;19.30;;;;;;;28.04;21.01;101742.63;8542812;33;20233;-73
2022/03/25 13:59:28;;;;;;;32.70;18.58;;;;;;;28.25;21.05;101741.63;8542537;33;20205;-73
2022/03/25 14:04:34;;;;;;;27.83;18.15;;;;;;;28.15;20.81;101730.97;8545419;33;20191;-73
2022/03/25 14:09:40;;;;;;;28.40;18.58;;;;;;;28.10;20.45;101727.13;8543684;33;20280;-73
2022/03/25 14:14:56;;;;;;;32.92;19.80;;;;;;;28.13;20.21;101721.19;8544275;33;20510;-73
2022/03/25 14:19:59;;;;;;;28.52;19.15;;;;;;;27.67;20.16;101711.66;8534176;33;20197;-73
2022/03/25 14:25:05;;;;;;;29.77;19.20;;;;;;;27.53;20.73;101710.75;8531791;33;21393;-73
2022/03/25 14:30:09;;;;;;;34.00;20.17;;;;;;;26.43;21.51;101715.03;8513471;33;20188;-73
2022/03/25 14:35:13;;;;;;;35.45;21.10;;;;;;;25.09;23.27;101706.16;8520578;32;20903;-73
2022/03/25 14:40:18;;;;;;;34.80;21.67;;;;;;;24.41;24.19;101713.47;8513001;32;20191;-72
2022/03/25 14:45:22;;;;;;;34.55;21.02;;;;;;;23.85;24.71;101702.66;8535618;33;20922;-73
2022/03/25 14:50:25;;;;;;;35.30;19.52;;;;;;;23.43;25.38;101697.53;8522876;33;20175;-73
2022/03/25 14:55:29;;;;;;;36.50;20.17;;;;;;;22.79;24.68;101694.78;8519170;33;21116;-72
2022/03/25 15:00:32;;;;;;;30.27;17.92;;;;;;;22.60;25.52;101692.38;8525758;33;20862;-71
2022/03/25 15:05:37;;;;;;;37.22;20.67;;;;;;;22.67;25.13;101694.28;8504280;33;20146;-73
2022/03/25 15:10:42;;;;;;;34.15;19.92;;;;;;;22.58;25.84;101689.84;8548809;32;20241;-73
2022/03/25 15:15:45;;;;;;;38.78;21.48;;;;;;;22.46;26.05;101693.94;8533239;33;20465;-73
2022/03/25 15:20:49;;;;;;;34.85;20.95;;;;;;;22.06;26.34;101693.72;8555584;33;20186;-72
2022/03/25 15:25:53;;;;;;;34.58;20.13;;;;;;;21.78;26.39;101697.75;8565543;33;20133;-72
2022/03/25 15:36:18;;;;;;;29.48;19.77;;;;;;;21.17;26.71;101688.75;8555393;32;21891;-72
2022/03/25 15:41:43;;;;;;;30.55;19.85;;;;;;;20.87;27.01;101688.22;8574457;33;20460;-71
2022/03/25 15:46:46;;;;;;;37.63;20.75;;;;;;;20.81;27.31;101686.13;8554804;33;20214;-72
2022/03/25 15:51:49;;;;;;;34.85;19.02;;;;;;;20.66;27.33;101682.28;8547130;33;20171;-72
2022/03/25 15:57:10;;;;;;;34.13;19.73;;;;;;;20.43;27.67;101682.78;8555369;32;20463;-72
2022/03/25 16:02:13;;;;;;;31.00;18.55;;;;;;;20.07;28.16;101670.97;8539707;33;20183;-72
2022/03/25 16:07:16;;;;;;;34.58;19.25;;;;;;;19.71;28.48;101675.56;8542630;33;20470;-73
2022/03/25 16:12:21;;;;;;;38.92;19.83;;;;;;;19.60;29.16;101684.78;8543017;32;20443;-72
2022/03/25 16:17:24;;;;;;;38.90;19.75;;;;;;;19.26;28.93;101679.06;8542573;32;20235;-73
2022/03/25 16:22:27;;;;;;;37.20;20.35;;;;;;;19.15;29.35;101680.13;8538387;33;21096;-72
2022/03/25 16:27:32;;;;;;;35.78;20.33;;;;;;;19.00;29.78;101666.09;8544421;32;20435;-73
2022/03/25 16:32:35;;;;;;;36.97;20.75;;;;;;;18.94;29.93;101672.16;8542466;32;20140;-73
2022/03/25 16:37:40;;;;;;;38.35;20.83;;;;;;;18.62;29.80;101676.06;8542978;33;20520;-73
2022/03/25 16:42:46;;;;;;;37.08;20.75;;;;;;;18.34;30.55;101681.38;8544177;32;20141;-73
2022/03/25 16:47:50;;;;;;;37.90;21.13;;;;;;;18.10;30.92;101675.50;8543584;32;20245;-73
2022/03/25 16:52:53;;;;;;;36.78;19.55;;;;;;;17.78;31.66;101682.03;8544465;32;20183;-73
2022/03/25 16:57:57;;;;;;;40.75;20.65;;;;;;;17.40;32.31;101682.81;8544138;32;20571;-73
2022/03/25 17:03:01;;;;;;;38.45;21.13;;;;;;;17.06;33.05;101690.31;8544385;32;20454;-72
2022/03/25 17:08:05;;;;;;;39.45;20.48;;;;;;;16.62;33.84;101690.53;8544599;32;21047;-72
2022/03/25 17:13:10;;;;;;;36.95;19.50;;;;;;;16.28;34.04;101687.97;8544026;32;21237;-72
2022/03/25 17:18:13;;;;;;;40.72;20.83;;;;;;;16.05;34.48;101683.59;8544913;32;21526;-72
2022/03/25 17:23:17;;;;;;;36.85;21.05;;;;;;;15.78;35.11;101694.88;8542397;33;20647;-73
2022/03/25 17:28:21;;;;;;;41.33;21.38;;;;;;;15.56;35.28;101687.66;8543429;32;20187;-73
2022/03/25 17:33:25;;;;;;;38.75;21.05;;;;;;;15.36;35.77;101687.44;8543048;32;20437;-73
2022/03/25 17:38:28;;;;;;;37.60;21.90;;;;;;;15.18;36.06;101681.63;8541205;33;20595;-72
2022/03/25 17:43:32;;;;;;;35.35;20.70;;;;;;;14.99;36.34;101679.53;8542700;33;20553;-73
2022/03/25 17:48:36;;;;;;;36.63;19.77;;;;;;;14.79;36.58;101693.78;8547529;33;20527;-72
2022/03/25 17:53:39;;;;;;;38.45;21.65;;;;;;;14.59;37.03;101690.78;8534905;32;20421;-72
2022/03/25 17:58:44;;;;;;;40.97;21.15;;;;;;;14.42;37.18;101703.88;8536957;32;20417;-72
2022/03/25 18:03:47;;;;;;;36.20;20.20;;;;;;;14.20;37.87;101715.41;8537359;33;20156;-72
2022/03/25 18:08:50;;;;;;;39.20;21.05;;;;;;;14.04;38.07;101707.59;8543422;33;21355;-72
2022/03/25 18:13:55;;;;;;;46.78;23.15;;;;;;;13.92;38.20;101718.34;8538933;32;20410;-72
2022/03/25 18:19:00;;;;;;;40.15;21.83;;;;;;;13.80;38.46;101727.34;8545273;32;20620;-73
2022/03/25 18:24:03;;;;;;;41.28;23.20;;;;;;;13.69;38.77;101727.28;8545442;33;20934;-73
2022/03/25 18:29:08;;;;;;;42.13;22.13;;;;;;;13.59;39.11;101721.69;8547737;33;21118;-73
2022/03/25 18:34:12;;;;;;;47.45;22.58;;;;;;;13.56;39.32;101731.84;8553294;33;20437;-73
2022/03/25 18:39:15;;;;;;;51.33;26.40;;;;;;;13.46;39.48;101732.50;8562908;33;20170;-73
2022/03/25 18:44:19;;;;;;;50.30;23.20;;;;;;;13.35;39.35;101729.69;8568003;33;21476;-73
2022/03/25 18:49:24;;;;;;;48.40;24.10;;;;;;;13.24;39.90;101729.59;8564914;33;20427;-73
2022/03/25 18:54:32;;;;;;;43.72;21.95;;;;;;;13.07;40.17;101732.63;8565019;33;20203;-73
2022/03/25 18:59:37;;;;;;;47.63;22.88;;;;;;;12.91;40.43;101738.22;8565752;33;21267;-73
2022/03/25 19:04:41;;;;;;;47.42;24.00;;;;;;;12.78;41.11;101744.47;8568773;32;20632;-73
2022/03/25 19:09:45;;;;;;;44.35;22.60;;;;;;;12.66;41.27;101749.84;8569216;32;20145;-73
2022/03/25 19:14:50;;;;;;;42.47;22.73;;;;;;;12.52;41.43;101757.03;8561055;32;20426;-73
2022/03/25 19:19:53;;;;;;;42.88;22.50;;;;;;;12.44;41.60;101758.50;8564020;33;20644;-73
2022/03/25 19:24:56;;;;;;;47.00;23.15;;;;;;;12.38;41.91;101762.47;8563599;32;20350;-74
2022/03/25 19:30:00;;;;;;;44.40;22.75;;;;;;;12.25;42.21;101765.09;8555021;32;20148;-73
2022/03/25 19:35:05;;;;;;;55.03;27.38;;;;;;;12.14;42.96;101765.78;8548611;32;20580;-72
2022/03/25 19:40:12;;;;;;;52.63;27.38;;;;;;;11.98;43.39;101773.16;8548779;32;20190;-73
2022/03/25 19:45:16;;;;;;;54.92;25.85;;;;;;;11.90;43.76;101767.41;8549383;32;20174;-73
2022/03/25 19:50:22;;;;;;;49.42;26.65;;;;;;;11.81;43.80;101774.25;8551282;32;20431;-73
2022/03/25 19:55:26;;;;;;;57.53;27.83;;;;;;;11.75;43.84;101781.88;8547474;32;20132;-73
2022/03/25 20:00:31;;;;;;;57.65;28.77;;;;;;;11.62;44.51;101789.84;8545525;32;20469;-74
2022/03/25 20:05:34;;;;;;;55.85;28.80;;;;;;;11.50;44.71;101784.28;8544690;33;20748;-74
2022/03/25 20:10:37;;;;;;;52.45;26.83;;;;;;;11.47;44.69;101792.53;8544155;32;21088;-72
2022/03/25 20:15:42;;;;;;;56.45;27.58;;;;;;;11.34;45.47;101796.09;8554340;32;20405;-72
2022/03/25 20:20:46;;;;;;;54.50;24.58;;;;;;;10.76;46.14;101801.31;8546538;33;20519;-74
2022/03/25 20:25:49;;;;;;;53.63;25.95;;;;;;;10.73;46.98;101803.34;8545758;33;20457;-74
2022/03/25 20:30:54;;;;;;;49.38;26.15;;;;;;;10.76;47.03;101813.91;8546519;33;20424;-74
2022/03/25 20:35:56;;;;;;;44.80;25.15;;;;;;;10.76;46.31;101830.91;8546125;33;20407;-74
2022/03/25 20:41:00;;;;;;;51.50;26.00;;;;;;;10.57;46.30;101820.34;8545219;33;21227;-74
2022/03/25 20:46:05;;;;;;;51.70;24.80;;;;;;;10.59;46.13;101825.66;8544195;33;21032;-73
2022/03/25 20:51:10;;;;;;;42.97;23.90;;;;;;;10.56;46.02;101832.06;8545413;33;20418;-74
2022/03/25 20:56:13;;;;;;;52.45;26.77;;;;;;;10.39;46.85;101832.16;8548293;32;20209;-73
2022/03/25 21:01:17;;;;;;;52.13;25.42;;;;;;;10.41;46.50;101829.41;8542060;32;21144;-74
2022/03/25 21:06:21;;;;;;;49.08;25.15;;;;;;;10.39;46.67;101830.38;8542518;32;20617;-74
2022/03/25 21:11:24;;;;;;;52.55;25.75;;;;;;;10.28;47.07;101843.50;8545040;32;20196;-75
2022/03/25 21:16:30;;;;;;;51.33;25.63;;;;;;;10.13;47.78;101841.72;8543711;32;20552;-74
2022/03/25 21:21:33;;;;;;;51.00;24.58;;;;;;;10.05;48.36;101841.28;8545471;32;20442;-74
2022/03/25 21:26:37;;;;;;;44.50;23.73;;;;;;;9.91;49.19;101845.59;8548477;33;20408;-74
2022/03/25 21:31:42;;;;;;;45.75;23.88;;;;;;;9.93;49.54;101845.50;8552103;33;20498;-73
2022/03/25 21:36:45;;;;;;;47.47;24.02;;;;;;;9.92;49.72;101846.44;8545293;33;21283;-73
2022/03/25 21:41:48;;;;;;;47.72;22.80;;;;;;;9.86;49.42;101844.09;8544450;33;20424;-73
2022/03/25 21:46:53;;;;;;;44.60;21.80;;;;;;;9.75;49.89;101847.34;8543229;33;20449;-73
2022/03/25 21:51:56;;;;;;;44.28;20.13;;;;;;;9.67;50.71;101854.94;8541953;32;20183;-73
2022/03/25 21:56:59;;;;;;;42.17;20.30;;;;;;;9.55;51.07;101852.94;8541465;32;20494;-73
2022/03/25 22:02:06;;;;;;;39.10;19.80;;;;;;;9.65;51.47;101857.72;8538661;32;20978;-73
2022/03/25 22:07:09;;;;;;;42.15;20.27;;;;;;;9.67;51.08;101847.75;8541448;33;20352;-73
2022/03/25 22:12:12;;;;;;;45.45;22.23;;;;;;;9.62;50.98;101863.22;8540341;32;20144;-72
2022/03/25 22:17:17;;;;;;;49.35;22.83;;;;;;;9.38;51.35;101864.53;8536921;33;20279;-73
2022/03/25 22:22:20;;;;;;;43.40;21.45;;;;;;;9.39;52.10;101868.97;8533242;33;20673;-73
2022/03/25 22:27:23;;;;;;;39.75;21.35;;;;;;;9.25;52.39;101889.31;8537247;33;21518;-73
2022/03/25 22:32:27;;;;;;;41.65;20.73;;;;;;;9.22;52.68;101889.47;8537141;32;20198;-73
2022/03/25 22:37:30;;;;;;;36.58;18.30;;;;;;;9.26;52.64;101885.69;8542978;33;21063;-73
2022/03/25 22:42:34;;;;;;;39.55;19.48;;;;;;;9.36;52.54;101878.03;8543846;32;20422;-73
2022/03/25 22:47:38;;;;;;;41.92;18.95;;;;;;;9.23;52.82;101882.28;8529726;33;20153;-73
2022/03/25 22:52:41;;;;;;;43.45;19.83;;;;;;;9.00;53.23;101880.81;8528087;33;20622;-73
2022/03/25 22:57:44;;;;;;;39.13;19.35;;;;;;;8.49;54.83;101877.94;8496970;33;20446;-73
2022/03/25 23:02:49;;;;;;;38.08;20.70;;;;;;;8.40;55.18;101873.00;8497436;33;20480;-74
2022/03/25 23:07:52;;;;;;;37.95;19.05;;;;;;;8.37;55.29;101867.81;8506188;33;20157;-73
2022/03/25 23:12:55;;;;;;;40.67;19.67;;;;;;;8.51;55.07;101865.34;8530969;32;20156;-73
2022/03/25 23:18:00;;;;;;;39.58;19.70;;;;;;;8.49;54.50;101861.88;8523194;32;20152;-73
2022/03/25 23:23:03;;;;;;;42.60;21.48;;;;;;;8.46;55.13;101864.72;8548385;33;20171;-74